createdAt,value
2018-04-12T00:00:36.532Z,93.98
2018-04-12T00:01:36.478Z,93.51
2018-04-12T00:02:36.436Z,93.98
2018-04-12T00:03:36.439Z,93.98
2018-04-12T00:04:36.474Z,94.36
2018-04-12T00:05:36.414Z,94.17
2018-04-12T00:06:36.372Z,93.88
2018-04-12T00:07:36.363Z,93.98
2018-04-12T00:08:36.341Z,93.22
2018-04-12T00:09:36.357Z,93.60
2018-04-12T00:10:36.327Z,93.60
2018-04-12T00:11:36.301Z,93.60
2018-04-12T00:12:36.276Z,93.51
2018-04-12T00:13:36.263Z,93.31
2018-04-12T00:14:36.251Z,93.12
2018-04-12T00:15:36.231Z,93.60
2018-04-12T00:16:36.227Z,93.51
2018-04-12T00:17:36.202Z,93.79
2018-04-12T00:18:36.243Z,93.41
2018-04-12T00:19:36.170Z,93.31
2018-04-12T00:20:36.145Z,93.41
2018-04-12T00:21:36.144Z,93.41
2018-04-12T00:22:36.138Z,93.51
2018-04-12T00:23:36.126Z,93.70
2018-04-12T00:24:36.082Z,93.51
2018-04-12T00:25:36.067Z,93.31
2018-04-12T00:26:36.060Z,93.60
2018-04-12T00:27:36.055Z,93.31
2018-04-12T00:28:36.017Z,93.79
2018-04-12T00:29:36.001Z,93.70
2018-04-12T00:30:35.985Z,93.88
2018-04-12T00:31:35.986Z,93.74
2018-04-12T00:32:35.955Z,94.12
2018-04-12T00:33:35.946Z,93.74
2018-04-12T00:34:35.917Z,93.74
2018-04-12T00:35:35.903Z,93.84
2018-04-12T00:36:35.903Z,93.93
2018-04-12T00:37:35.870Z,93.36
2018-04-12T00:38:35.874Z,93.46
2018-04-12T00:39:35.852Z,93.93
2018-04-12T00:40:35.832Z,93.84
2018-04-12T00:41:35.828Z,94.22
2018-04-12T00:42:35.789Z,94.03
2018-04-12T00:43:35.769Z,93.74
2018-04-12T00:44:35.766Z,94.12
2018-04-12T00:45:35.757Z,94.12
2018-04-12T00:46:35.723Z,94.03
2018-04-12T00:47:35.718Z,94.12
2018-04-12T00:48:35.832Z,93.74
2018-04-12T00:49:35.699Z,94.41
2018-04-12T00:50:35.673Z,93.84
2018-04-12T00:51:35.706Z,93.46
2018-04-12T00:52:35.659Z,94.12
2018-04-12T00:53:35.658Z,94.03
2018-04-12T00:54:35.657Z,93.93
2018-04-12T00:55:35.650Z,93.93
2018-04-12T00:56:35.554Z,94.03
2018-04-12T00:57:35.557Z,93.93
2018-04-12T00:58:35.533Z,93.65
2018-04-12T00:59:35.509Z,93.65
2018-04-12T01:00:35.489Z,93.84
2018-04-12T01:01:35.475Z,93.84
2018-04-12T01:02:35.469Z,93.74
2018-04-12T01:03:35.466Z,94.70
2018-04-12T01:04:35.427Z,94.41
2018-04-12T01:05:35.409Z,94.03
2018-04-12T01:06:35.448Z,94.60
2018-04-12T01:07:35.411Z,94.41
2018-04-12T01:08:35.387Z,95.08
2018-04-12T01:09:35.353Z,94.89
2018-04-12T01:10:35.349Z,94.51
2018-04-12T01:11:35.343Z,94.22
2018-04-12T01:12:35.336Z,94.41
2018-04-12T01:13:35.280Z,94.79
2018-04-12T01:14:35.285Z,94.98
2018-04-12T01:15:35.255Z,95.17
2018-04-12T01:16:35.232Z,94.98
2018-04-12T01:17:35.231Z,94.41
2018-04-12T01:18:35.198Z,94.51
2018-04-12T01:19:35.240Z,94.79
2018-04-12T01:20:35.189Z,94.98
2018-04-12T01:21:35.150Z,94.51
2018-04-12T01:22:35.142Z,94.89
2018-04-12T01:23:35.136Z,94.98
2018-04-12T01:24:35.109Z,94.84
2018-04-12T01:25:35.107Z,94.65
2018-04-12T01:26:35.059Z,94.93
2018-04-12T01:27:35.052Z,95.32
2018-04-12T01:28:35.025Z,95.12
2018-04-12T01:29:35.018Z,94.65
2018-04-12T01:30:35.020Z,94.74
2018-04-12T01:31:34.975Z,94.93
2018-04-12T01:32:34.965Z,95.12
2018-04-12T01:33:34.974Z,94.74
2018-04-12T01:34:34.937Z,95.32
2018-04-12T01:35:34.964Z,95.22
2018-04-12T01:36:34.894Z,95.51
2018-04-12T01:37:34.882Z,95.32
2018-04-12T01:38:34.864Z,95.41
2018-04-12T01:39:34.845Z,95.51
2018-04-12T01:40:34.825Z,95.79
2018-04-12T01:41:34.812Z,95.89
2018-04-12T01:42:35.745Z,95.61
2018-04-12T01:43:34.784Z,96.08
2018-04-12T01:44:34.770Z,96.17
2018-04-12T01:45:34.817Z,96.27
2018-04-12T01:46:34.732Z,96.36
2018-04-12T01:47:34.710Z,96.46
2018-04-12T01:48:34.694Z,96.89
2018-04-12T01:49:34.675Z,96.84
2018-04-12T01:50:34.662Z,97.65
2018-04-12T01:51:34.641Z,97.17
2018-04-12T01:52:34.621Z,96.89
2018-04-12T01:53:34.606Z,97.61
2018-04-12T01:54:34.595Z,97.36
2018-04-12T01:55:34.580Z,97.36
2018-04-12T01:56:34.555Z,97.56
2018-04-12T01:57:34.541Z,97.36
2018-04-12T01:58:34.525Z,97.41
2018-04-12T01:59:34.513Z,97.46
2018-04-12T02:00:34.486Z,97.46
2018-04-12T02:01:34.473Z,97.65
2018-04-12T02:02:34.459Z,97.65
2018-04-12T02:03:34.436Z,97.17
2018-04-12T02:04:34.419Z,97.65
2018-04-12T02:05:34.406Z,97.36
2018-04-12T02:06:34.390Z,97.27
2018-04-12T02:07:34.375Z,97.17
2018-04-12T02:08:34.350Z,97.56
2018-04-12T02:09:34.339Z,97.27
2018-04-12T02:10:34.319Z,97.65
2018-04-12T02:11:34.300Z,97.65
2018-04-12T02:12:34.290Z,97.84
2018-04-12T02:13:34.266Z,98.03
2018-04-12T02:14:34.249Z,98.03
2018-04-12T02:15:34.235Z,97.46
2018-04-12T02:16:34.220Z,97.75
2018-04-12T02:17:34.210Z,97.65
2018-04-12T02:18:34.185Z,97.65
2018-04-12T02:19:34.168Z,97.65
2018-04-12T02:20:34.146Z,97.36
2018-04-12T02:21:34.139Z,97.56
2018-04-12T02:22:34.115Z,97.36
2018-04-12T02:23:34.119Z,97.56
2018-04-12T02:24:34.080Z,97.27
2018-04-12T02:25:34.069Z,97.27
2018-04-12T02:26:34.043Z,97.75
2018-04-12T02:27:34.035Z,97.36
2018-04-12T02:28:34.020Z,97.75
2018-04-12T02:29:33.999Z,97.56
2018-04-12T02:30:33.993Z,97.46
2018-04-12T02:31:33.965Z,97.46
2018-04-12T02:32:33.950Z,97.46
2018-04-12T02:33:33.926Z,97.46
2018-04-12T02:34:33.917Z,97.65
2018-04-12T02:35:33.896Z,97.56
2018-04-12T02:36:33.885Z,97.46
2018-04-12T02:37:33.858Z,97.75
2018-04-12T02:38:33.842Z,97.75
2018-04-12T02:39:33.860Z,98.32
2018-04-12T02:40:33.817Z,97.94
2018-04-12T02:41:33.820Z,98.41
2018-04-12T02:42:33.781Z,98.32
2018-04-12T02:43:33.772Z,98.13
2018-04-12T02:44:33.738Z,98.03
2018-04-12T02:45:33.733Z,98.13
2018-04-12T02:46:33.707Z,98.70
2018-04-12T02:47:33.689Z,98.41
2018-04-12T02:48:33.673Z,98.51
2018-04-12T02:49:33.655Z,98.60
2018-04-12T02:50:33.641Z,98.22
2018-04-12T02:51:33.621Z,98.03
2018-04-12T02:52:33.597Z,98.32
2018-04-12T02:53:33.596Z,98.22
2018-04-12T02:54:33.572Z,98.13
2018-04-12T02:55:33.547Z,98.22
2018-04-12T02:56:33.542Z,98.13
2018-04-12T02:57:33.533Z,98.22
2018-04-12T02:58:33.500Z,98.22
2018-04-12T02:59:33.485Z,98.03
2018-04-12T03:00:33.460Z,98.03
2018-04-12T03:01:33.454Z,98.70
2018-04-12T03:02:33.437Z,98.41
2018-04-12T03:03:33.413Z,98.70
2018-04-12T03:04:33.392Z,98.51
2018-04-12T03:05:33.386Z,98.70
2018-04-12T03:06:33.362Z,98.41
2018-04-12T03:07:33.351Z,98.89
2018-04-12T03:08:33.326Z,99.18
2018-04-12T03:09:33.356Z,99.18
2018-04-12T03:10:33.303Z,98.79
2018-04-12T03:11:33.293Z,98.41
2018-04-12T03:12:33.265Z,98.51
2018-04-12T03:13:33.247Z,98.51
2018-04-12T03:14:33.228Z,98.70
2018-04-12T03:15:33.209Z,99.08
2018-04-12T03:16:33.204Z,98.65
2018-04-12T03:17:33.167Z,99.22
2018-04-12T03:18:33.159Z,99.13
2018-04-12T03:19:33.137Z,98.94
2018-04-12T03:20:33.142Z,98.94
2018-04-12T03:21:33.097Z,98.94
2018-04-12T03:22:33.091Z,98.94
2018-04-12T03:23:33.082Z,99.13
2018-04-12T03:24:33.121Z,99.41
2018-04-12T03:25:33.027Z,99.32
2018-04-12T03:26:33.011Z,99.22
2018-04-12T03:27:33.014Z,99.13
2018-04-12T03:28:33.026Z,98.94
2018-04-12T03:29:32.965Z,99.89
2018-04-12T03:30:32.945Z,99.60
2018-04-12T03:31:32.934Z,99.99
2018-04-12T03:32:32.948Z,99.79
2018-04-12T03:33:32.889Z,99.89
2018-04-12T03:34:32.874Z,99.89
2018-04-12T03:35:32.863Z,99.99
2018-04-12T03:36:32.854Z,99.99
2018-04-12T03:37:32.824Z,99.98
2018-04-12T03:38:32.803Z,99.79
2018-04-12T03:39:32.915Z,99.79
2018-04-12T03:40:32.776Z,99.89
2018-04-12T03:41:32.757Z,99.99
2018-04-12T03:42:32.961Z,99.89
2018-04-12T03:43:32.719Z,99.89
2018-04-12T03:44:32.708Z,99.89
2018-04-12T03:45:32.697Z,99.98
2018-04-12T03:46:32.692Z,99.89
2018-04-12T03:47:32.644Z,99.89
2018-04-12T03:48:32.664Z,99.89
2018-04-12T03:49:32.636Z,99.89
2018-04-12T03:50:32.681Z,99.99
2018-04-12T03:51:32.574Z,99.98
2018-04-12T03:52:32.566Z,99.89
2018-04-12T03:53:32.572Z,99.89
2018-04-12T03:54:32.570Z,99.98
2018-04-12T03:55:32.505Z,99.99
2018-04-12T03:56:32.506Z,99.99
2018-04-12T03:57:32.492Z,99.99
2018-04-12T03:58:32.499Z,99.99
2018-04-12T03:59:32.433Z,99.99
2018-04-12T04:00:32.429Z,99.99
2018-04-12T04:01:32.413Z,99.99
2018-04-12T04:02:32.399Z,99.99
2018-04-12T04:03:32.368Z,99.99
2018-04-12T04:04:32.348Z,99.99
2018-04-12T04:05:32.343Z,99.99
2018-04-12T04:06:32.316Z,99.99
2018-04-12T04:07:32.294Z,99.99
2018-04-12T04:08:32.282Z,99.99
2018-04-12T04:09:32.262Z,99.99
2018-04-12T04:10:32.251Z,99.99
2018-04-12T04:11:32.240Z,99.99
2018-04-12T04:12:32.206Z,99.99
2018-04-12T04:13:32.199Z,99.99
2018-04-12T04:14:32.230Z,99.99
2018-04-12T04:15:32.178Z,99.99
2018-04-12T04:16:32.135Z,99.99
2018-04-12T04:17:32.121Z,99.99
2018-04-12T04:18:32.116Z,99.99
2018-04-12T04:19:32.103Z,99.99
2018-04-12T04:20:32.076Z,99.99
2018-04-12T04:21:32.051Z,99.99
2018-04-12T04:22:32.126Z,99.99
2018-04-12T04:23:32.040Z,99.99
2018-04-12T04:24:32.009Z,99.99
2018-04-12T04:25:31.981Z,99.99
2018-04-12T04:26:31.963Z,99.99
2018-04-12T04:27:31.974Z,99.99
2018-04-12T04:28:31.965Z,99.99
2018-04-12T04:29:31.919Z,99.99
2018-04-12T04:30:31.898Z,99.99
2018-04-12T04:31:31.884Z,99.99
2018-04-12T04:32:31.881Z,99.99
2018-04-12T04:33:31.838Z,99.99
2018-04-12T04:34:31.827Z,99.99
2018-04-12T04:35:31.829Z,99.99
2018-04-12T04:36:31.806Z,99.99
2018-04-12T04:37:31.797Z,99.99
2018-04-12T04:38:31.761Z,99.99
2018-04-12T04:39:31.813Z,99.99
2018-04-12T04:40:31.741Z,99.99
2018-04-12T04:41:31.718Z,99.99
2018-04-12T04:42:31.704Z,99.99
2018-04-12T04:43:31.717Z,99.99
2018-04-12T04:44:31.667Z,99.99
2018-04-12T04:45:31.671Z,99.99
2018-04-12T04:46:31.627Z,99.99
2018-04-12T04:47:31.623Z,99.99
2018-04-12T04:48:31.587Z,99.99
2018-04-12T04:49:31.561Z,99.99
2018-04-12T04:50:31.607Z,99.99
2018-04-12T04:51:31.578Z,99.99
2018-04-12T04:52:31.559Z,99.99
2018-04-12T04:53:31.523Z,99.99
2018-04-12T04:54:31.484Z,99.99
2018-04-12T04:55:31.486Z,99.99
2018-04-12T04:56:31.467Z,99.99
2018-04-12T04:57:31.447Z,99.99
2018-04-12T04:58:31.438Z,99.99
2018-04-12T04:59:31.411Z,99.99
2018-04-12T05:00:31.390Z,99.99
2018-04-12T05:01:31.405Z,99.99
2018-04-12T05:02:31.353Z,99.99
2018-04-12T05:03:31.349Z,99.99
2018-04-12T05:04:31.330Z,99.99
2018-04-12T05:05:31.319Z,99.99
2018-04-12T05:06:31.275Z,99.99
2018-04-12T05:07:31.270Z,99.99
2018-04-12T05:08:31.240Z,99.99
2018-04-12T05:09:31.272Z,99.99
2018-04-12T05:10:31.217Z,99.99
2018-04-12T05:11:31.238Z,99.99
2018-04-12T05:12:31.171Z,99.99
2018-04-12T05:13:31.256Z,99.99
2018-04-12T05:14:31.184Z,99.99
2018-04-12T05:15:31.180Z,99.99
2018-04-12T05:16:31.092Z,99.99
2018-04-12T05:17:31.104Z,99.99
2018-04-12T05:18:31.074Z,99.99
2018-04-12T05:19:31.096Z,99.99
2018-04-12T05:20:31.043Z,99.99
2018-04-12T05:21:31.024Z,99.99
2018-04-12T05:22:31.009Z,99.99
2018-04-12T05:23:31.001Z,99.99
2018-04-12T05:24:30.985Z,99.99
2018-04-12T05:25:30.971Z,99.99
2018-04-12T05:26:30.970Z,99.99
2018-04-12T05:27:30.933Z,99.99
2018-04-12T05:28:30.948Z,99.99
2018-04-12T05:29:30.881Z,99.99
2018-04-12T05:30:30.875Z,99.99
2018-04-12T05:31:30.903Z,99.99
2018-04-12T05:32:30.873Z,99.99
2018-04-12T05:33:30.819Z,99.99
2018-04-12T05:34:30.821Z,99.99
2018-04-12T05:35:30.783Z,99.99
2018-04-12T05:36:30.780Z,99.99
2018-04-12T05:37:30.803Z,99.66
2018-04-12T05:38:30.759Z,99.75
2018-04-12T05:39:30.719Z,99.46
2018-04-12T05:40:30.713Z,99.56
2018-04-12T05:41:30.693Z,99.08
2018-04-12T05:42:30.669Z,99.99
2018-04-12T05:43:30.689Z,99.95
2018-04-12T05:44:30.632Z,99.75
2018-04-12T05:45:30.655Z,99.56
2018-04-12T05:46:30.632Z,99.37
2018-04-12T05:47:30.610Z,98.90
2018-04-12T05:48:30.589Z,98.99
2018-04-12T05:49:30.555Z,98.99
2018-04-12T05:50:30.560Z,98.70
2018-04-12T05:51:30.535Z,98.61
2018-04-12T05:52:30.544Z,99.08
2018-04-12T05:53:30.503Z,98.80
2018-04-12T05:54:30.476Z,98.70
2018-04-12T05:55:30.455Z,98.13
2018-04-12T05:56:30.466Z,98.70
2018-04-12T05:57:30.433Z,97.89
2018-04-12T05:58:30.435Z,98.08
2018-04-12T05:59:30.404Z,97.42
2018-04-12T06:00:30.364Z,97.80
2018-04-12T06:01:30.352Z,97.32
2018-04-12T06:02:30.362Z,97.32
2018-04-12T06:03:30.329Z,97.17
2018-04-12T06:04:30.301Z,97.46
2018-04-12T06:05:30.306Z,97.56
2018-04-12T06:06:30.283Z,97.85
2018-04-12T06:07:30.254Z,97.42
2018-04-12T06:08:30.259Z,97.56
2018-04-12T06:09:30.231Z,97.75
2018-04-12T06:10:30.234Z,97.66
2018-04-12T06:11:30.200Z,97.85
2018-04-12T06:12:30.175Z,97.42
2018-04-12T06:13:30.146Z,97.61
2018-04-12T06:14:30.176Z,97.61
2018-04-12T06:15:30.125Z,96.75
2018-04-12T06:16:30.114Z,96.46
2018-04-12T06:17:30.131Z,96.27
2018-04-12T06:18:30.085Z,96.27
2018-04-12T06:19:30.055Z,95.89
2018-04-12T06:20:30.137Z,95.12
2018-04-12T06:21:30.029Z,94.93
2018-04-12T06:22:30.016Z,95.41
2018-04-12T06:23:30.004Z,94.36
2018-04-12T06:24:29.994Z,94.93
2018-04-12T06:25:29.957Z,94.93
2018-04-12T06:26:29.970Z,95.03
2018-04-12T06:27:29.966Z,95.51
2018-04-12T06:28:30.051Z,95.41
2018-04-12T06:29:29.925Z,96.27
2018-04-12T06:30:29.884Z,95.41
2018-04-12T06:31:29.872Z,95.61
2018-04-12T06:32:29.845Z,95.41
2018-04-12T06:33:29.867Z,95.51
2018-04-12T06:34:29.890Z,95.41
2018-04-12T06:35:29.810Z,95.17
2018-04-12T06:36:29.800Z,94.70
2018-04-12T06:37:30.460Z,94.03
2018-04-12T06:38:29.882Z,93.84
2018-04-12T06:39:29.789Z,94.79
2018-04-12T06:40:29.740Z,95.08
2018-04-12T06:41:29.745Z,95.03
2018-04-12T06:42:29.703Z,94.46
2018-04-12T06:43:29.718Z,95.03
2018-04-12T06:44:29.665Z,94.74
2018-04-12T06:45:29.655Z,94.65
2018-04-12T06:46:29.659Z,95.03
2018-04-12T06:47:29.609Z,95.03
2018-04-12T06:48:29.605Z,95.12
2018-04-12T06:49:29.573Z,94.74
2018-04-12T06:50:29.577Z,95.03
2018-04-12T06:51:29.577Z,95.03
2018-04-12T06:52:29.543Z,94.65
2018-04-12T06:53:29.555Z,94.36
2018-04-12T06:54:29.516Z,94.84
2018-04-12T06:55:29.525Z,94.84
2018-04-12T06:56:29.459Z,94.46
2018-04-12T06:57:29.461Z,94.74
2018-04-12T06:58:29.433Z,94.07
2018-04-12T06:59:29.435Z,93.46
2018-04-12T07:00:29.419Z,93.22
2018-04-12T07:01:29.447Z,93.12
2018-04-12T07:02:29.398Z,93.51
2018-04-12T07:03:29.390Z,93.12
2018-04-12T07:04:29.354Z,93.31
2018-04-12T07:05:29.325Z,93.02
2018-04-12T07:06:29.339Z,92.74
2018-04-12T07:07:29.313Z,93.41
2018-04-12T07:08:29.271Z,93.12
2018-04-12T07:09:29.280Z,92.93
2018-04-12T07:10:29.246Z,92.65
2018-04-12T07:11:29.219Z,92.26
2018-04-12T07:12:29.211Z,91.83
2018-04-12T07:13:29.201Z,91.83
2018-04-12T07:14:29.218Z,91.69
2018-04-12T07:15:29.208Z,91.98
2018-04-12T07:16:29.151Z,91.78
2018-04-12T07:17:29.125Z,91.21
2018-04-12T07:18:29.129Z,91.26
2018-04-12T07:19:29.149Z,90.45
2018-04-12T07:20:29.094Z,90.50
2018-04-12T07:21:29.064Z,89.97
2018-04-12T07:22:29.093Z,90.55
2018-04-12T07:23:29.056Z,90.26
2018-04-12T07:24:29.082Z,90.55
2018-04-12T07:25:28.988Z,91.31
2018-04-12T07:26:28.979Z,91.21
2018-04-12T07:27:28.984Z,91.21
2018-04-12T07:28:29.031Z,90.64
2018-04-12T07:29:28.944Z,90.26
2018-04-12T07:30:28.954Z,90.11
2018-04-12T07:31:28.933Z,89.25
2018-04-12T07:32:28.919Z,89.54
2018-04-12T07:33:28.889Z,89.16
2018-04-12T07:34:28.871Z,88.40
2018-04-12T07:35:28.836Z,88.11
2018-04-12T07:36:28.824Z,88.01
2018-04-12T07:37:28.857Z,87.92
2018-04-12T07:38:28.808Z,88.01
2018-04-12T07:39:28.780Z,88.20
2018-04-12T07:40:28.765Z,87.68
2018-04-12T07:41:28.735Z,87.20
2018-04-12T07:42:28.735Z,86.63
2018-04-12T07:43:28.734Z,87.35
2018-04-12T07:44:28.731Z,87.25
2018-04-12T07:45:28.774Z,87.39
2018-04-12T07:46:28.672Z,86.91
2018-04-12T07:47:28.655Z,86.43
2018-04-12T07:48:28.670Z,86.53
2018-04-12T07:49:28.671Z,86.15
2018-04-12T07:50:28.600Z,85.86
2018-04-12T07:51:28.610Z,85.86
2018-04-12T07:52:28.621Z,85.77
2018-04-12T07:53:28.582Z,86.05
2018-04-12T07:54:28.578Z,85.96
2018-04-12T07:55:28.640Z,86.05
2018-04-12T07:56:28.524Z,85.96
2018-04-12T07:57:28.520Z,86.34
2018-04-12T07:58:28.525Z,86.15
2018-04-12T07:59:28.489Z,86.63
2018-04-12T08:00:28.517Z,86.53
2018-04-12T08:01:28.450Z,86.43
2018-04-12T08:02:28.426Z,85.86
2018-04-12T08:03:28.453Z,85.10
2018-04-12T08:04:28.471Z,85.58
2018-04-12T08:05:28.437Z,85.38
2018-04-12T08:06:28.405Z,84.66
2018-04-12T08:07:28.378Z,84.09
2018-04-12T08:08:28.374Z,83.80
2018-04-12T08:09:28.325Z,84.72
2018-04-12T08:10:28.328Z,85.00
2018-04-12T08:11:28.325Z,85.00
2018-04-12T08:12:28.285Z,85.19
2018-04-12T08:13:28.268Z,84.91
2018-04-12T08:14:28.268Z,84.56
2018-04-12T08:15:28.253Z,84.19
2018-04-12T08:16:28.233Z,84.09
2018-04-12T08:17:28.225Z,83.99
2018-04-12T08:18:28.206Z,84.09
2018-04-12T08:19:28.221Z,83.70
2018-04-12T08:20:28.188Z,83.42
2018-04-12T08:21:28.212Z,83.80
2018-04-12T08:22:28.185Z,83.80
2018-04-12T08:23:28.128Z,83.70
2018-04-12T08:24:28.128Z,83.33
2018-04-12T08:25:28.093Z,82.84
2018-04-12T08:26:28.087Z,82.12
2018-04-12T08:27:28.108Z,82.18
2018-04-12T08:28:28.054Z,82.56
2018-04-12T08:29:28.029Z,82.65
2018-04-12T08:30:28.040Z,83.51
2018-04-12T08:31:28.040Z,83.23
2018-04-12T08:32:27.992Z,82.70
2018-04-12T08:33:28.002Z,82.22
2018-04-12T08:34:27.979Z,82.22
2018-04-12T08:35:27.979Z,81.84
2018-04-12T08:36:27.946Z,81.93
2018-04-12T08:37:27.950Z,81.79
2018-04-12T08:38:27.934Z,82.28
2018-04-12T08:39:27.913Z,82.84
2018-04-12T08:40:27.921Z,82.28
2018-04-12T08:41:27.880Z,82.28
2018-04-12T08:42:27.854Z,82.28
2018-04-12T08:43:27.889Z,82.28
2018-04-12T08:44:27.886Z,82.75
2018-04-12T08:45:27.834Z,82.56
2018-04-12T08:47:58.465Z,82.56
2018-04-12T09:15:05.640Z,79.06
2018-04-12T09:16:05.336Z,79.39
2018-04-12T09:17:58.447Z,78.72
2018-04-12T09:18:58.389Z,78.81
2018-04-12T09:20:51.617Z,78.43
2018-04-12T09:21:51.548Z,78.34
2018-04-12T09:23:45.577Z,77.80
2018-04-12T09:24:45.538Z,76.84
2018-04-12T09:26:38.741Z,76.18
2018-04-12T09:27:38.704Z,76.56
2018-04-12T09:29:32.183Z,76.65
2018-04-12T09:30:31.847Z,76.50
2018-04-12T09:32:25.350Z,75.35
2018-04-12T09:33:25.012Z,74.87
2018-04-12T09:35:18.123Z,75.83
2018-04-12T09:36:18.107Z,75.83
2018-04-12T09:38:11.316Z,75.26
2018-04-12T09:39:11.172Z,75.83
2018-04-12T09:41:04.355Z,75.45
2018-04-12T09:42:04.284Z,74.77
2018-04-12T09:43:57.429Z,74.58
2018-04-12T09:44:57.356Z,75.51
2018-04-12T09:46:50.511Z,76.37
2018-04-12T09:47:50.434Z,76.02
2018-04-12T09:49:44.552Z,75.79
2018-04-12T09:50:44.496Z,76.27
2018-04-12T09:52:57.939Z,76.56
2018-04-12T09:53:52.643Z,76.56
2018-04-12T09:55:46.471Z,76.21
2018-04-12T09:56:45.890Z,76.02
2018-04-12T09:58:38.951Z,76.94
2018-04-12T09:59:39.619Z,76.79
2018-04-12T10:01:33.764Z,75.48
2018-04-12T10:02:32.095Z,74.24
2018-04-12T10:04:25.337Z,73.66
2018-04-12T10:05:25.260Z,73.28
2018-04-12T10:07:18.488Z,73.47
2018-04-12T10:08:18.395Z,73.19
2018-04-12T10:10:12.557Z,73.95
2018-04-12T10:11:11.536Z,74.01
2018-04-12T10:13:04.722Z,74.68
2018-04-12T10:14:05.843Z,74.40
2018-04-12T10:15:57.734Z,74.40
2018-04-12T10:16:57.712Z,74.30
2018-04-12T10:18:51.186Z,74.40
2018-04-12T10:19:50.830Z,74.11
2018-04-12T10:21:43.920Z,74.20
2018-04-12T10:22:43.881Z,74.11
2018-04-12T10:24:37.011Z,73.63
2018-04-12T10:25:36.945Z,73.82
2018-04-12T10:27:30.410Z,73.63
2018-04-12T10:28:30.100Z,73.66
2018-04-12T10:30:23.362Z,73.86
2018-04-12T10:31:23.256Z,73.66
2018-04-12T10:33:16.535Z,73.28
2018-04-12T10:34:16.416Z,72.80
2018-04-12T10:36:09.615Z,72.55
2018-04-12T10:37:09.598Z,72.36
2018-04-12T10:39:03.629Z,71.59
2018-04-12T10:40:03.566Z,71.50
2018-04-12T10:41:57.048Z,71.02
2018-04-12T10:42:56.641Z,71.02
2018-04-12T10:44:49.952Z,71.59
2018-04-12T10:45:49.884Z,71.50
2018-04-12T10:47:44.525Z,71.50
2018-04-12T10:48:44.445Z,71.50
2018-04-12T10:50:37.597Z,70.92
2018-04-12T10:51:37.586Z,70.83
2018-04-12T10:53:30.661Z,70.64
2018-04-12T10:54:30.616Z,71.21
2018-04-12T10:56:24.568Z,70.83
2018-04-12T10:57:24.544Z,71.59
2018-04-12T10:59:17.685Z,70.83
2018-04-12T11:00:17.598Z,70.92
2018-04-12T11:02:11.124Z,71.02
2018-04-12T11:03:10.673Z,71.21
2018-04-12T11:05:03.802Z,70.73
2018-04-12T11:06:03.866Z,70.96
2018-04-12T11:07:57.694Z,70.00
2018-04-12T11:08:57.631Z,70.38
2018-04-12T11:10:50.724Z,69.52
2018-04-12T11:11:50.669Z,69.81
2018-04-12T11:13:43.783Z,70.35
2018-04-12T11:14:43.729Z,70.73
2018-04-12T11:16:37.736Z,69.81
2018-04-12T11:17:36.789Z,70.35
2018-04-12T11:19:29.929Z,70.35
2018-04-12T11:20:29.847Z,70.54
2018-04-12T11:22:24.456Z,70.29
2018-04-12T11:23:24.422Z,69.62
2018-04-12T11:25:17.605Z,69.62
2018-04-12T11:26:17.510Z,69.62
2018-04-12T11:28:10.749Z,70.09
2018-04-12T11:29:10.675Z,69.81
2018-04-12T11:31:03.799Z,69.81
2018-04-12T11:32:03.753Z,69.52
2018-04-12T11:33:57.260Z,69.81
2018-04-12T11:34:56.820Z,69.65
2018-04-12T11:36:51.537Z,69.52
2018-04-12T11:37:51.420Z,69.42
2018-04-12T11:39:44.553Z,70.19
2018-04-12T11:40:44.499Z,70.19
2018-04-12T11:42:37.663Z,70.48
2018-04-12T11:43:37.555Z,70.09
2018-04-12T11:45:30.710Z,70.29
2018-04-12T11:46:30.636Z,70.19
2018-04-12T11:48:23.711Z,70.76
2018-04-12T11:49:23.805Z,70.57
2018-04-12T11:51:16.811Z,71.02
2018-04-12T11:52:16.750Z,70.96
2018-04-12T11:54:09.853Z,70.86
2018-04-12T11:55:09.808Z,69.90
2018-04-12T11:57:03.290Z,70.19
2018-04-12T11:58:02.860Z,70.38
2018-04-12T11:59:57.826Z,70.86
2018-04-12T12:00:57.437Z,70.86
2018-04-12T12:02:50.567Z,69.56
2018-04-12T12:03:50.525Z,70.32
2018-04-12T12:05:43.645Z,69.26
2018-04-12T12:06:43.570Z,68.88
2018-04-12T12:08:36.715Z,68.63
2018-04-12T12:09:36.658Z,68.40
2018-04-12T12:11:29.763Z,68.21
2018-04-12T12:12:29.679Z,68.24
2018-04-12T12:14:22.838Z,68.59
2018-04-12T12:15:22.782Z,68.69
2018-04-12T12:17:16.696Z,69.46
2018-04-12T12:18:16.657Z,69.26
2018-04-12T12:20:09.848Z,69.17
2018-04-12T12:21:09.759Z,69.17
2018-04-12T12:23:02.873Z,69.46
2018-04-12T12:24:02.818Z,70.32
2018-04-12T12:25:55.940Z,69.93
2018-04-12T12:26:55.864Z,69.74
2018-04-12T12:28:50.601Z,69.56
2018-04-12T12:29:50.442Z,69.74
2018-04-12T12:31:44.448Z,69.40
2018-04-12T12:32:43.524Z,69.26
2018-04-12T12:34:36.871Z,70.23
2018-04-12T12:35:36.692Z,70.13
2018-04-12T12:37:29.798Z,69.78
2018-04-12T12:38:29.736Z,69.46
2018-04-12T12:40:22.871Z,68.82
2018-04-12T12:41:22.807Z,68.53
2018-04-12T12:43:15.977Z,69.07
2018-04-12T12:44:15.929Z,69.17
2018-04-12T12:46:10.498Z,70.03
2018-04-12T12:47:10.428Z,69.84
2018-04-12T12:49:17.914Z,70.13
2018-04-12T12:50:17.872Z,70.03
2018-04-12T12:52:26.822Z,70.23
2018-04-12T12:53:26.255Z,70.51
2018-04-12T12:55:19.387Z,70.70
2018-04-12T12:56:19.339Z,70.42
2018-04-12T12:58:12.429Z,71.19
2018-04-12T12:59:12.389Z,70.70
2018-04-12T13:01:05.536Z,70.23
2018-04-12T13:02:05.441Z,70.23
2018-04-12T13:03:58.600Z,71.28
2018-04-12T13:04:58.581Z,71.19
2018-04-12T13:06:52.065Z,70.32
2018-04-12T13:07:51.618Z,70.80
2018-04-12T13:09:44.797Z,70.42
2018-04-12T13:10:44.711Z,69.84
2018-04-12T13:12:37.900Z,70.61
2018-04-12T13:13:37.828Z,71.05
2018-04-12T13:15:30.933Z,71.28
2018-04-12T13:16:30.891Z,70.90
2018-04-12T13:18:23.992Z,71.09
2018-04-12T13:19:23.941Z,71.09
2018-04-12T13:21:17.179Z,71.28
2018-04-12T13:22:17.025Z,70.70
2018-04-12T13:24:10.133Z,70.70
2018-04-12T13:25:10.075Z,70.90
2018-04-12T13:27:03.152Z,70.23
2018-04-12T13:28:03.134Z,70.32
2018-04-12T13:29:56.211Z,70.03
2018-04-12T13:30:56.178Z,70.61
2018-04-12T13:32:49.335Z,70.42
2018-04-12T13:33:49.239Z,70.17
2018-04-12T13:35:42.570Z,70.26
2018-04-12T13:36:42.328Z,69.40
2018-04-12T13:38:36.265Z,69.93
2018-04-12T13:39:36.227Z,70.70
2018-04-12T13:41:29.429Z,70.13
2018-04-12T13:42:29.382Z,70.80
2018-04-12T13:44:22.473Z,70.36
2018-04-12T13:45:22.419Z,70.17
2018-04-12T13:47:15.874Z,69.97
2018-04-12T13:48:15.584Z,70.07
2018-04-12T13:50:08.667Z,69.78
2018-04-12T13:51:08.617Z,69.78
2018-04-12T13:53:01.744Z,69.68
2018-04-12T13:54:01.686Z,69.59
2018-04-12T13:55:54.930Z,69.68
2018-04-12T13:56:54.867Z,69.87
2018-04-12T13:58:48.094Z,69.24
2018-04-12T13:59:48.017Z,69.14
2018-04-12T14:01:42.618Z,69.49
2018-04-12T14:02:42.599Z,69.34
2018-04-12T14:04:35.683Z,69.05
2018-04-12T14:05:35.639Z,69.14
2018-04-12T14:07:28.719Z,69.34
2018-04-12T14:08:28.728Z,69.14
2018-04-12T14:10:21.793Z,69.05
2018-04-12T14:11:21.736Z,69.62
2018-04-12T14:13:14.824Z,69.97
2018-04-12T14:14:14.769Z,69.68
2018-04-12T14:16:07.904Z,69.87
2018-04-12T14:17:07.887Z,70.07
2018-04-12T14:19:00.942Z,70.55
2018-04-12T14:20:00.886Z,70.45
2018-04-12T14:21:55.843Z,70.36
2018-04-12T14:22:55.472Z,71.09
2018-04-12T14:24:48.938Z,70.93
2018-04-12T14:25:48.540Z,70.07
2018-04-12T14:27:42.548Z,69.72
2018-04-12T14:28:42.500Z,68.47
2018-04-12T14:30:35.610Z,69.43
2018-04-12T14:31:35.570Z,69.72
2018-04-12T14:33:28.675Z,69.91
2018-04-12T14:34:28.663Z,69.53
2018-04-12T14:36:22.572Z,68.51
2018-04-12T14:37:22.490Z,68.31
2018-04-12T14:39:16.003Z,68.12
2018-04-12T14:40:15.556Z,68.02
2018-04-12T14:42:08.674Z,67.00
2018-04-12T14:43:08.610Z,66.91
2018-04-12T14:45:01.724Z,66.23
2018-04-12T14:46:01.672Z,66.52
2018-04-12T14:47:55.145Z,65.88
2018-04-12T14:48:54.750Z,65.40
2018-04-12T14:50:47.803Z,65.50
2018-04-12T14:51:47.765Z,65.84
2018-04-12T14:53:40.952Z,67.64
2018-04-12T14:54:40.902Z,68.41
2018-04-12T14:56:34.009Z,67.74
2018-04-12T14:57:34.000Z,67.48
2018-04-12T14:59:28.599Z,67.19
2018-04-12T15:00:28.524Z,66.81
2018-04-12T15:02:21.757Z,67.00
2018-04-12T15:03:21.716Z,67.19
2018-04-12T15:05:14.820Z,66.27
2018-04-12T15:06:14.784Z,66.17
2018-04-12T15:08:08.252Z,66.17
2018-04-12T15:09:07.845Z,65.69